sensor_id;sensor_type;location;lat;lon;timestamp;pressure;altitude;pressure_sealevel;temperature;humidity
38400;BME280;24180;42.676;23.320;2023-08-06T00:01:12;93886.00;;;17.61;nan
38400;BME280;24180;42.676;23.320;2023-08-06T00:03:37;93849.56;;;17.65;nan
38400;BME280;24180;42.676;23.320;2023-08-06T00:06:05;93911.59;;;17.80;nan
38400;BME280;24180;42.676;23.320;2023-08-06T00:08:31;93929.00;;;17.75;nan
38400;BME280;24180;42.676;23.320;2023-08-06T00:10:56;93920.88;;;17.70;nan
38400;BME280;24180;42.676;23.320;2023-08-06T00:13:21;93921.28;;;17.73;nan
38400;BME280;24180;42.676;23.320;2023-08-06T00:15:47;93930.84;;;17.81;nan
38400;BME280;24180;42.676;23.320;2023-08-06T00:18:12;93901.28;;;17.85;nan
38400;BME280;24180;42.676;23.320;2023-08-06T00:20:40;93894.84;;;18.01;nan
38400;BME280;24180;42.676;23.320;2023-08-06T00:23:09;93887.28;;;17.85;nan
38400;BME280;24180;42.676;23.320;2023-08-06T00:25:34;93873.88;;;17.80;nan
38400;BME280;24180;42.676;23.320;2023-08-06T00:27:59;93899.88;;;17.83;nan
38400;BME280;24180;42.676;23.320;2023-08-06T00:30:25;93912.41;;;17.81;nan
38400;BME280;24180;42.676;23.320;2023-08-06T00:32:50;93897.41;;;17.81;nan
38400;BME280;24180;42.676;23.320;2023-08-06T00:35:16;93861.16;;;17.70;nan
38400;BME280;24180;42.676;23.320;2023-08-06T00:37:41;93878.38;;;17.79;nan
38400;BME280;24180;42.676;23.320;2023-08-06T00:40:07;93888.28;;;17.84;nan
38400;BME280;24180;42.676;23.320;2023-08-06T00:42:33;93856.47;;;17.72;nan
38400;BME280;24180;42.676;23.320;2023-08-06T00:45:00;93880.81;;;17.88;nan
38400;BME280;24180;42.676;23.320;2023-08-06T00:47:26;93851.63;;;17.82;nan
38400;BME280;24180;42.676;23.320;2023-08-06T00:49:51;93871.34;;;18.00;nan
38400;BME280;24180;42.676;23.320;2023-08-06T00:52:17;93868.72;;;18.00;nan
38400;BME280;24180;42.676;23.320;2023-08-06T00:54:43;93873.38;;;18.04;nan
38400;BME280;24180;42.676;23.320;2023-08-06T00:57:09;93874.94;;;17.92;nan
38400;BME280;24180;42.676;23.320;2023-08-06T00:59:35;93835.41;;;17.66;nan
38400;BME280;24180;42.676;23.320;2023-08-06T01:02:01;93818.78;;;17.58;nan
38400;BME280;24180;42.676;23.320;2023-08-06T01:04:26;93850.66;;;17.83;nan
38400;BME280;24180;42.676;23.320;2023-08-06T01:07:02;93833.41;;;17.81;nan
38400;BME280;24180;42.676;23.320;2023-08-06T01:09:52;93808.03;;;17.60;nan
38400;BME280;24180;42.676;23.320;2023-08-06T01:12:25;93820.81;;;17.63;nan
38400;BME280;24180;42.676;23.320;2023-08-06T01:17:35;93811.72;;;17.59;nan
38400;BME280;24180;42.676;23.320;2023-08-06T01:20:01;93833.00;;;17.71;nan
38400;BME280;24180;42.676;23.320;2023-08-06T01:22:26;93832.41;;;17.75;nan
38400;BME280;24180;42.676;23.320;2023-08-06T01:24:52;93794.91;;;17.67;nan
38400;BME280;24180;42.676;23.320;2023-08-06T01:27:28;93825.31;;;17.82;nan
38400;BME280;24180;42.676;23.320;2023-08-06T01:30:12;93788.41;;;17.69;nan
38400;BME280;24180;42.676;23.320;2023-08-06T01:32:44;93813.97;;;17.75;nan
38400;BME280;24180;42.676;23.320;2023-08-06T01:35:12;93797.34;;;17.88;nan
38400;BME280;24180;42.676;23.320;2023-08-06T01:37:39;93770.63;;;17.78;nan
38400;BME280;24180;42.676;23.320;2023-08-06T01:40:14;93775.06;;;17.84;nan
38400;BME280;24180;42.676;23.320;2023-08-06T01:42:40;93803.25;;;18.03;nan
38400;BME280;24180;42.676;23.320;2023-08-06T01:45:09;93779.09;;;17.80;nan
38400;BME280;24180;42.676;23.320;2023-08-06T01:47:35;93790.47;;;18.00;nan
38400;BME280;24180;42.676;23.320;2023-08-06T01:50:01;93774.28;;;17.97;nan
38400;BME280;24180;42.676;23.320;2023-08-06T01:52:27;93801.81;;;18.01;nan
38400;BME280;24180;42.676;23.320;2023-08-06T01:54:52;93807.31;;;18.12;nan
38400;BME280;24180;42.676;23.320;2023-08-06T01:57:18;93778.53;;;17.98;nan
38400;BME280;24180;42.676;23.320;2023-08-06T01:59:43;93798.41;;;18.13;nan
38400;BME280;24180;42.676;23.320;2023-08-06T02:02:08;93766.81;;;17.94;nan
38400;BME280;24180;42.676;23.320;2023-08-06T02:04:34;93758.69;;;18.02;nan
38400;BME280;24180;42.676;23.320;2023-08-06T02:06:59;93778.34;;;18.06;nan
38400;BME280;24180;42.676;23.320;2023-08-06T02:09:25;93757.03;;;18.01;nan
38400;BME280;24180;42.676;23.320;2023-08-06T02:11:50;93772.06;;;18.13;nan
38400;BME280;24180;42.676;23.320;2023-08-06T02:14:16;93784.44;;;18.20;nan
38400;BME280;24180;42.676;23.320;2023-08-06T02:16:41;93740.66;;;17.85;nan
38400;BME280;24180;42.676;23.320;2023-08-06T02:19:06;93797.38;;;18.21;nan
38400;BME280;24180;42.676;23.320;2023-08-06T02:21:32;93765.38;;;17.98;nan
38400;BME280;24180;42.676;23.320;2023-08-06T02:23:57;93789.28;;;18.09;nan
38400;BME280;24180;42.676;23.320;2023-08-06T02:26:23;93794.13;;;18.12;nan
38400;BME280;24180;42.676;23.320;2023-08-06T02:28:48;93805.50;;;18.33;nan
38400;BME280;24180;42.676;23.320;2023-08-06T02:31:13;93769.22;;;18.08;nan
38400;BME280;24180;42.676;23.320;2023-08-06T02:33:39;93789.69;;;18.13;nan
38400;BME280;24180;42.676;23.320;2023-08-06T02:36:04;93767.81;;;17.86;nan
38400;BME280;24180;42.676;23.320;2023-08-06T02:38:33;93796.16;;;17.97;nan
38400;BME280;24180;42.676;23.320;2023-08-06T02:40:58;93826.75;;;17.98;nan
38400;BME280;24180;42.676;23.320;2023-08-06T02:43:24;93826.78;;;17.92;nan
38400;BME280;24180;42.676;23.320;2023-08-06T02:45:49;93837.88;;;17.87;nan
38400;BME280;24180;42.676;23.320;2023-08-06T02:48:15;93841.13;;;17.89;nan
38400;BME280;24180;42.676;23.320;2023-08-06T02:50:41;93816.81;;;17.87;nan
38400;BME280;24180;42.676;23.320;2023-08-06T02:53:09;93768.16;;;17.56;nan
38400;BME280;24180;42.676;23.320;2023-08-06T02:55:35;93742.84;;;17.55;nan
38400;BME280;24180;42.676;23.320;2023-08-06T02:58:01;93792.88;;;17.69;nan
38400;BME280;24180;42.676;23.320;2023-08-06T03:00:27;93748.91;;;17.56;nan
38400;BME280;24180;42.676;23.320;2023-08-06T03:02:53;93745.09;;;17.65;nan
38400;BME280;24180;42.676;23.320;2023-08-06T03:05:19;93793.34;;;17.85;nan
38400;BME280;24180;42.676;23.320;2023-08-06T03:07:44;93768.22;;;17.96;nan
38400;BME280;24180;42.676;23.320;2023-08-06T03:10:10;93728.91;;;17.95;nan
38400;BME280;24180;42.676;23.320;2023-08-06T03:12:35;93723.81;;;17.93;nan
38400;BME280;24180;42.676;23.320;2023-08-06T03:15:01;93742.69;;;17.83;nan
38400;BME280;24180;42.676;23.320;2023-08-06T03:17:26;93786.03;;;17.88;nan
38400;BME280;24180;42.676;23.320;2023-08-06T03:19:51;93744.28;;;17.84;nan
38400;BME280;24180;42.676;23.320;2023-08-06T03:22:17;93742.03;;;17.88;nan
38400;BME280;24180;42.676;23.320;2023-08-06T03:24:42;93715.16;;;17.86;nan
38400;BME280;24180;42.676;23.320;2023-08-06T03:27:08;93750.78;;;17.89;nan
38400;BME280;24180;42.676;23.320;2023-08-06T03:29:33;93755.03;;;17.70;nan
38400;BME280;24180;42.676;23.320;2023-08-06T03:31:58;93803.03;;;17.85;nan
38400;BME280;24180;42.676;23.320;2023-08-06T03:34:24;93782.75;;;17.66;nan
38400;BME280;24180;42.676;23.320;2023-08-06T03:36:49;93807.28;;;17.79;nan
38400;BME280;24180;42.676;23.320;2023-08-06T03:39:15;93816.03;;;18.00;nan
38400;BME280;24180;42.676;23.320;2023-08-06T03:41:40;93796.19;;;18.10;nan
38400;BME280;24180;42.676;23.320;2023-08-06T03:44:05;93802.69;;;18.14;nan
38400;BME280;24180;42.676;23.320;2023-08-06T03:46:31;93820.47;;;18.12;nan
38400;BME280;24180;42.676;23.320;2023-08-06T03:49:00;93785.66;;;17.91;nan
38400;BME280;24180;42.676;23.320;2023-08-06T03:51:26;93790.91;;;18.10;nan
38400;BME280;24180;42.676;23.320;2023-08-06T03:53:51;93800.63;;;18.03;nan
38400;BME280;24180;42.676;23.320;2023-08-06T03:56:16;93807.09;;;18.01;nan
38400;BME280;24180;42.676;23.320;2023-08-06T03:58:42;93821.69;;;17.97;nan
38400;BME280;24180;42.676;23.320;2023-08-06T04:01:07;93814.19;;;17.87;nan
38400;BME280;24180;42.676;23.320;2023-08-06T04:03:33;93802.81;;;17.80;nan
38400;BME280;24180;42.676;23.320;2023-08-06T04:05:59;93828.59;;;17.91;nan
38400;BME280;24180;42.676;23.320;2023-08-06T04:08:24;93782.94;;;17.64;nan
38400;BME280;24180;42.676;23.320;2023-08-06T04:10:53;93843.59;;;18.10;nan
38400;BME280;24180;42.676;23.320;2023-08-06T04:13:18;93836.09;;;18.07;nan
38400;BME280;24180;42.676;23.320;2023-08-06T04:15:44;93843.41;;;18.19;nan
38400;BME280;24180;42.676;23.320;2023-08-06T04:18:09;93809.16;;;18.12;nan
38400;BME280;24180;42.676;23.320;2023-08-06T04:20:35;93821.72;;;18.23;nan
38400;BME280;24180;42.676;23.320;2023-08-06T04:23:07;93822.53;;;18.24;nan
38400;BME280;24180;42.676;23.320;2023-08-06T04:25:32;93816.03;;;18.06;nan
38400;BME280;24180;42.676;23.320;2023-08-06T04:27:58;93787.44;;;17.90;nan
38400;BME280;24180;42.676;23.320;2023-08-06T04:30:23;93764.53;;;17.84;nan
38400;BME280;24180;42.676;23.320;2023-08-06T04:32:49;93783.41;;;18.07;nan
38400;BME280;24180;42.676;23.320;2023-08-06T04:35:15;93817.66;;;18.34;nan
38400;BME280;24180;42.676;23.320;2023-08-06T04:37:41;93771.06;;;18.28;nan
38400;BME280;24180;42.676;23.320;2023-08-06T04:40:07;93761.09;;;18.36;nan
38400;BME280;24180;42.676;23.320;2023-08-06T04:42:32;93750.16;;;18.33;nan
38400;BME280;24180;42.676;23.320;2023-08-06T04:44:58;93771.63;;;18.50;nan
38400;BME280;24180;42.676;23.320;2023-08-06T04:47:23;93741.44;;;18.39;nan
38400;BME280;24180;42.676;23.320;2023-08-06T04:49:51;93731.31;;;18.36;nan
38400;BME280;24180;42.676;23.320;2023-08-06T04:52:16;93742.88;;;18.48;nan
38400;BME280;24180;42.676;23.320;2023-08-06T04:54:43;93738.16;;;18.57;nan
38400;BME280;24180;42.676;23.320;2023-08-06T04:57:08;93710.63;;;18.46;nan
38400;BME280;24180;42.676;23.320;2023-08-06T04:59:34;93725.19;;;18.62;nan
38400;BME280;24180;42.676;23.320;2023-08-06T05:01:59;93727.03;;;18.68;nan
38400;BME280;24180;42.676;23.320;2023-08-06T05:04:24;93709.16;;;18.63;nan
38400;BME280;24180;42.676;23.320;2023-08-06T05:06:50;93725.56;;;18.72;nan
38400;BME280;24180;42.676;23.320;2023-08-06T05:09:15;93719.53;;;18.58;nan
38400;BME280;24180;42.676;23.320;2023-08-06T05:11:41;93724.56;;;18.66;nan
38400;BME280;24180;42.676;23.320;2023-08-06T05:14:06;93721.09;;;18.73;nan
38400;BME280;24180;42.676;23.320;2023-08-06T05:16:31;93702.06;;;18.64;nan
38400;BME280;24180;42.676;23.320;2023-08-06T05:18:57;93716.59;;;18.86;nan
38400;BME280;24180;42.676;23.320;2023-08-06T05:21:22;93726.91;;;18.94;nan
38400;BME280;24180;42.676;23.320;2023-08-06T05:23:48;93712.56;;;18.84;nan
38400;BME280;24180;42.676;23.320;2023-08-06T05:26:13;93718.81;;;18.89;nan
38400;BME280;24180;42.676;23.320;2023-08-06T05:28:41;93717.75;;;18.97;nan
38400;BME280;24180;42.676;23.320;2023-08-06T05:31:06;93730.09;;;19.10;nan
38400;BME280;24180;42.676;23.320;2023-08-06T05:33:32;93682.50;;;18.91;nan
38400;BME280;24180;42.676;23.320;2023-08-06T05:35:57;93727.19;;;19.31;nan
38400;BME280;24180;42.676;23.320;2023-08-06T05:38:22;93713.94;;;19.44;nan
38400;BME280;24180;42.676;23.320;2023-08-06T05:40:48;93713.34;;;19.74;nan
38400;BME280;24180;42.676;23.320;2023-08-06T05:43:14;93726.72;;;19.86;nan
38400;BME280;24180;42.676;23.320;2023-08-06T05:45:44;93694.47;;;19.70;nan
38400;BME280;24180;42.676;23.320;2023-08-06T05:48:10;93696.94;;;19.97;nan
38400;BME280;24180;42.676;23.320;2023-08-06T05:50:35;93725.31;;;20.08;nan
38400;BME280;24180;42.676;23.320;2023-08-06T05:53:00;93715.56;;;20.09;nan
38400;BME280;24180;42.676;23.320;2023-08-06T05:55:26;93749.63;;;20.23;nan
38400;BME280;24180;42.676;23.320;2023-08-06T05:57:51;93752.44;;;20.28;nan
38400;BME280;24180;42.676;23.320;2023-08-06T06:00:17;93753.63;;;20.33;nan
38400;BME280;24180;42.676;23.320;2023-08-06T06:02:43;93765.22;;;20.56;nan
38400;BME280;24180;42.676;23.320;2023-08-06T06:05:09;93775.97;;;20.62;nan
38400;BME280;24180;42.676;23.320;2023-08-06T06:07:34;93764.75;;;20.66;nan
38400;BME280;24180;42.676;23.320;2023-08-06T06:10:00;93780.41;;;20.68;nan
38400;BME280;24180;42.676;23.320;2023-08-06T06:12:25;93750.88;;;20.46;nan
38400;BME280;24180;42.676;23.320;2023-08-06T06:14:51;93782.75;;;20.58;nan
38400;BME280;24180;42.676;23.320;2023-08-06T06:17:16;93792.69;;;20.62;nan
38400;BME280;24180;42.676;23.320;2023-08-06T06:19:42;93772.81;;;20.53;nan
38400;BME280;24180;42.676;23.320;2023-08-06T06:22:07;93777.06;;;20.54;nan
38400;BME280;24180;42.676;23.320;2023-08-06T06:24:33;93805.00;;;20.68;nan
38400;BME280;24180;42.676;23.320;2023-08-06T06:26:58;93797.16;;;20.87;nan
38400;BME280;24180;42.676;23.320;2023-08-06T06:29:24;93799.81;;;21.05;nan
38400;BME280;24180;42.676;23.320;2023-08-06T06:31:49;93764.03;;;20.77;nan
38400;BME280;24180;42.676;23.320;2023-08-06T06:34:15;93814.66;;;21.31;nan
38400;BME280;24180;42.676;23.320;2023-08-06T06:36:40;93837.38;;;21.64;nan
38400;BME280;24180;42.676;23.320;2023-08-06T06:39:05;93853.00;;;21.47;nan
38400;BME280;24180;42.676;23.320;2023-08-06T06:41:31;93847.03;;;21.33;nan
38400;BME280;24180;42.676;23.320;2023-08-06T06:43:58;93835.56;;;20.89;nan
38400;BME280;24180;42.676;23.320;2023-08-06T06:46:23;93832.66;;;20.72;nan
38400;BME280;24180;42.676;23.320;2023-08-06T06:48:48;93861.41;;;20.94;nan
38400;BME280;24180;42.676;23.320;2023-08-06T06:51:14;93856.16;;;20.87;nan
38400;BME280;24180;42.676;23.320;2023-08-06T06:53:39;93848.69;;;20.77;nan
38400;BME280;24180;42.676;23.320;2023-08-06T06:56:05;93855.88;;;20.70;nan
38400;BME280;24180;42.676;23.320;2023-08-06T06:58:32;93856.19;;;20.55;nan
38400;BME280;24180;42.676;23.320;2023-08-06T07:00:57;93884.56;;;20.73;nan
38400;BME280;24180;42.676;23.320;2023-08-06T07:03:23;93881.31;;;21.03;nan
38400;BME280;24180;42.676;23.320;2023-08-06T07:05:49;93869.56;;;21.17;nan
38400;BME280;24180;42.676;23.320;2023-08-06T07:08:15;93873.50;;;21.33;nan
38400;BME280;24180;42.676;23.320;2023-08-06T07:10:41;93883.66;;;21.36;nan
38400;BME280;24180;42.676;23.320;2023-08-06T07:13:06;93892.56;;;21.67;nan
38400;BME280;24180;42.676;23.320;2023-08-06T07:15:32;93916.94;;;21.75;nan
38400;BME280;24180;42.676;23.320;2023-08-06T07:17:58;93937.38;;;21.68;nan
38400;BME280;24180;42.676;23.320;2023-08-06T07:20:23;93912.09;;;21.22;nan
38400;BME280;24180;42.676;23.320;2023-08-06T07:22:49;93933.19;;;21.35;nan
38400;BME280;24180;42.676;23.320;2023-08-06T07:25:15;93940.09;;;21.37;nan
38400;BME280;24180;42.676;23.320;2023-08-06T07:27:41;93925.06;;;21.30;nan
38400;BME280;24180;42.676;23.320;2023-08-06T07:30:07;93899.28;;;21.19;nan
38400;BME280;24180;42.676;23.320;2023-08-06T07:32:32;93929.81;;;21.47;nan
38400;BME280;24180;42.676;23.320;2023-08-06T07:34:58;93906.94;;;21.52;nan
38400;BME280;24180;42.676;23.320;2023-08-06T07:37:28;93927.53;;;21.75;nan
38400;BME280;24180;42.676;23.320;2023-08-06T07:39:54;93918.97;;;21.73;nan
38400;BME280;24180;42.676;23.320;2023-08-06T07:42:20;93912.75;;;21.86;nan
38400;BME280;24180;42.676;23.320;2023-08-06T07:44:58;93929.72;;;22.03;nan
38400;BME280;24180;42.676;23.320;2023-08-06T07:47:23;93909.00;;;21.94;nan
38400;BME280;24180;42.676;23.320;2023-08-06T07:49:49;93913.84;;;21.97;nan
38400;BME280;24180;42.676;23.320;2023-08-06T07:52:14;93934.53;;;22.31;nan
38400;BME280;24180;42.676;23.320;2023-08-06T07:54:40;93921.84;;;22.52;nan
38400;BME280;24180;42.676;23.320;2023-08-06T07:57:06;93921.13;;;22.63;nan
38400;BME280;24180;42.676;23.320;2023-08-06T07:59:31;93935.75;;;22.84;nan
38400;BME280;24180;42.676;23.320;2023-08-06T08:01:57;93901.09;;;22.49;nan
38400;BME280;24180;42.676;23.320;2023-08-06T08:04:23;93925.50;;;22.87;nan
38400;BME280;24180;42.676;23.320;2023-08-06T08:06:49;93921.19;;;23.05;nan
38400;BME280;24180;42.676;23.320;2023-08-06T08:09:14;93926.16;;;23.01;nan
38400;BME280;24180;42.676;23.320;2023-08-06T08:11:40;93924.97;;;22.97;nan
38400;BME280;24180;42.676;23.320;2023-08-06T08:14:06;93922.22;;;23.34;nan
38400;BME280;24180;42.676;23.320;2023-08-06T08:16:31;93926.53;;;23.47;nan
38400;BME280;24180;42.676;23.320;2023-08-06T08:18:57;93926.88;;;23.50;nan
38400;BME280;24180;42.676;23.320;2023-08-06T08:21:23;93930.13;;;23.22;nan
38400;BME280;24180;42.676;23.320;2023-08-06T08:23:50;93929.81;;;23.72;nan
38400;BME280;24180;42.676;23.320;2023-08-06T08:26:15;93930.66;;;23.73;nan
38400;BME280;24180;42.676;23.320;2023-08-06T08:28:41;93921.84;;;23.30;nan
38400;BME280;24180;42.676;23.320;2023-08-06T08:31:10;93932.44;;;23.49;nan
38400;BME280;24180;42.676;23.320;2023-08-06T08:33:37;93924.53;;;23.42;nan
38400;BME280;24180;42.676;23.320;2023-08-06T08:36:02;93931.09;;;23.28;nan
38400;BME280;24180;42.676;23.320;2023-08-06T08:38:28;93925.97;;;23.45;nan
38400;BME280;24180;42.676;23.320;2023-08-06T08:40:54;93941.44;;;23.48;nan
38400;BME280;24180;42.676;23.320;2023-08-06T08:43:23;93934.69;;;23.33;nan
38400;BME280;24180;42.676;23.320;2023-08-06T08:45:53;93908.41;;;23.55;nan
38400;BME280;24180;42.676;23.320;2023-08-06T08:48:24;93918.78;;;23.99;nan
38400;BME280;24180;42.676;23.320;2023-08-06T08:50:50;93932.09;;;23.99;nan
38400;BME280;24180;42.676;23.320;2023-08-06T08:53:17;93917.25;;;23.79;nan
38400;BME280;24180;42.676;23.320;2023-08-06T08:55:49;93910.84;;;23.69;nan
38400;BME280;24180;42.676;23.320;2023-08-06T08:58:15;93917.84;;;23.81;nan
38400;BME280;24180;42.676;23.320;2023-08-06T09:00:42;93910.81;;;23.99;nan
38400;BME280;24180;42.676;23.320;2023-08-06T09:03:07;93886.41;;;24.14;nan
38400;BME280;24180;42.676;23.320;2023-08-06T09:05:33;93914.16;;;24.18;nan
38400;BME280;24180;42.676;23.320;2023-08-06T09:08:04;93914.97;;;23.95;nan
38400;BME280;24180;42.676;23.320;2023-08-06T09:10:30;93885.91;;;23.58;nan
38400;BME280;24180;42.676;23.320;2023-08-06T09:12:57;93907.50;;;23.50;nan
38400;BME280;24180;42.676;23.320;2023-08-06T09:15:27;93906.78;;;23.43;nan
38400;BME280;24180;42.676;23.320;2023-08-06T09:17:53;93904.63;;;23.63;nan
38400;BME280;24180;42.676;23.320;2023-08-06T09:20:19;93887.25;;;24.02;nan
38400;BME280;24180;42.676;23.320;2023-08-06T09:22:44;93895.28;;;23.96;nan
38400;BME280;24180;42.676;23.320;2023-08-06T09:25:10;93876.81;;;23.89;nan
38400;BME280;24180;42.676;23.320;2023-08-06T09:27:37;93886.06;;;23.98;nan
38400;BME280;24180;42.676;23.320;2023-08-06T09:30:04;93877.28;;;23.98;nan
38400;BME280;24180;42.676;23.320;2023-08-06T09:32:46;93888.38;;;23.95;nan
38400;BME280;24180;42.676;23.320;2023-08-06T09:35:18;93871.50;;;24.01;nan
38400;BME280;24180;42.676;23.320;2023-08-06T09:37:44;93860.16;;;24.17;nan
38400;BME280;24180;42.676;23.320;2023-08-06T09:40:29;93849.28;;;24.30;nan
38400;BME280;24180;42.676;23.320;2023-08-06T09:42:55;93862.66;;;24.59;nan
38400;BME280;24180;42.676;23.320;2023-08-06T09:45:21;93874.13;;;24.59;nan
38400;BME280;24180;42.676;23.320;2023-08-06T09:47:48;93848.06;;;24.62;nan
38400;BME280;24180;42.676;23.320;2023-08-06T09:50:16;93885.00;;;25.10;nan
38400;BME280;24180;42.676;23.320;2023-08-06T09:52:42;93866.34;;;25.10;nan
38400;BME280;24180;42.676;23.320;2023-08-06T09:55:10;93888.97;;;25.53;nan
38400;BME280;24180;42.676;23.320;2023-08-06T09:57:37;93860.84;;;25.74;nan
38400;BME280;24180;42.676;23.320;2023-08-06T10:00:03;93888.03;;;25.59;nan
38400;BME280;24180;42.676;23.320;2023-08-06T10:02:30;93862.16;;;25.43;nan
38400;BME280;24180;42.676;23.320;2023-08-06T10:04:57;93887.94;;;25.25;nan
38400;BME280;24180;42.676;23.320;2023-08-06T10:07:23;93903.03;;;25.20;nan
38400;BME280;24180;42.676;23.320;2023-08-06T10:09:49;93879.88;;;25.20;nan
38400;BME280;24180;42.676;23.320;2023-08-06T10:12:15;93908.03;;;25.04;nan
38400;BME280;24180;42.676;23.320;2023-08-06T10:14:43;93874.19;;;24.76;nan
38400;BME280;24180;42.676;23.320;2023-08-06T10:17:10;93883.19;;;24.87;nan
38400;BME280;24180;42.676;23.320;2023-08-06T10:19:36;93885.22;;;25.37;nan
38400;BME280;24180;42.676;23.320;2023-08-06T10:22:09;93898.03;;;27.04;nan
38400;BME280;24180;42.676;23.320;2023-08-06T10:24:49;93879.22;;;27.81;nan
38400;BME280;24180;42.676;23.320;2023-08-06T10:29:55;93895.06;;;27.00;nan
38400;BME280;24180;42.676;23.320;2023-08-06T10:32:20;93905.50;;;26.12;nan
38400;BME280;24180;42.676;23.320;2023-08-06T10:37:21;93897.81;;;25.99;nan
38400;BME280;24180;42.676;23.320;2023-08-06T10:39:51;93906.56;;;26.45;nan
38400;BME280;24180;42.676;23.320;2023-08-06T10:42:27;93930.28;;;25.79;nan
38400;BME280;24180;42.676;23.320;2023-08-06T10:45:15;93925.91;;;25.32;nan
38400;BME280;24180;42.676;23.320;2023-08-06T10:47:42;93862.22;;;24.91;nan
38400;BME280;24180;42.676;23.320;2023-08-06T10:50:14;93901.81;;;24.87;nan
38400;BME280;24180;42.676;23.320;2023-08-06T10:52:42;93913.06;;;24.77;nan
38400;BME280;24180;42.676;23.320;2023-08-06T10:55:08;93905.22;;;24.82;nan
38400;BME280;24180;42.676;23.320;2023-08-06T10:57:34;93926.25;;;24.96;nan
38400;BME280;24180;42.676;23.320;2023-08-06T11:00:00;93914.09;;;24.88;nan
38400;BME280;24180;42.676;23.320;2023-08-06T11:02:25;93938.75;;;25.07;nan
38400;BME280;24180;42.676;23.320;2023-08-06T11:04:51;93935.03;;;25.08;nan
38400;BME280;24180;42.676;23.320;2023-08-06T11:07:16;93948.09;;;25.50;nan
38400;BME280;24180;42.676;23.320;2023-08-06T11:09:42;93943.22;;;25.59;nan
38400;BME280;24180;42.676;23.320;2023-08-06T11:12:10;93939.00;;;25.34;nan
38400;BME280;24180;42.676;23.320;2023-08-06T11:14:36;93945.41;;;25.21;nan
38400;BME280;24180;42.676;23.320;2023-08-06T11:17:02;93947.22;;;24.80;nan
38400;BME280;24180;42.676;23.320;2023-08-06T11:19:27;93932.19;;;24.16;nan
38400;BME280;24180;42.676;23.320;2023-08-06T11:21:52;93960.75;;;23.97;nan
38400;BME280;24180;42.676;23.320;2023-08-06T11:24:18;93987.75;;;22.73;nan
38400;BME280;24180;42.676;23.320;2023-08-06T11:26:43;93917.22;;;20.86;nan
38400;BME280;24180;42.676;23.320;2023-08-06T11:29:10;93915.47;;;20.35;nan
38400;BME280;24180;42.676;23.320;2023-08-06T11:31:36;93908.97;;;20.30;nan
38400;BME280;24180;42.676;23.320;2023-08-06T11:34:01;93896.59;;;20.24;nan
38400;BME280;24180;42.676;23.320;2023-08-06T11:36:31;93879.69;;;19.94;nan
38400;BME280;24180;42.676;23.320;2023-08-06T11:38:58;93885.38;;;19.91;nan
38400;BME280;24180;42.676;23.320;2023-08-06T11:41:23;93865.91;;;20.23;nan
38400;BME280;24180;42.676;23.320;2023-08-06T11:43:49;93892.97;;;22.25;nan
38400;BME280;24180;42.676;23.320;2023-08-06T11:46:14;93890.75;;;23.61;nan
38400;BME280;24180;42.676;23.320;2023-08-06T11:48:52;93899.84;;;24.30;nan
38400;BME280;24180;42.676;23.320;2023-08-06T11:51:18;93944.06;;;26.89;nan
38400;BME280;24180;42.676;23.320;2023-08-06T11:53:49;93944.97;;;29.55;nan
38400;BME280;24180;42.676;23.320;2023-08-06T11:56:15;93952.53;;;31.71;nan
38400;BME280;24180;42.676;23.320;2023-08-06T11:58:41;93962.75;;;32.80;nan
38400;BME280;24180;42.676;23.320;2023-08-06T12:01:07;93932.94;;;34.48;nan
38400;BME280;24180;42.676;23.320;2023-08-06T12:03:32;93959.84;;;36.78;nan
38400;BME280;24180;42.676;23.320;2023-08-06T12:05:58;93960.69;;;37.20;nan
38400;BME280;24180;42.676;23.320;2023-08-06T12:08:26;93960.16;;;37.04;nan
38400;BME280;24180;42.676;23.320;2023-08-06T12:10:52;93948.72;;;37.76;nan
38400;BME280;24180;42.676;23.320;2023-08-06T12:13:19;93934.91;;;39.93;100.00
38400;BME280;24180;42.676;23.320;2023-08-06T12:15:45;93951.94;;;41.65;100.00
38400;BME280;24180;42.676;23.320;2023-08-06T12:18:10;93947.69;;;41.29;100.00
38400;BME280;24180;42.676;23.320;2023-08-06T12:20:36;93966.53;;;39.54;nan
38400;BME280;24180;42.676;23.320;2023-08-06T12:23:01;93946.75;;;35.19;nan
38400;BME280;24180;42.676;23.320;2023-08-06T12:25:27;93933.88;;;32.16;nan
38400;BME280;24180;42.676;23.320;2023-08-06T12:27:52;93951.44;;;31.01;nan
38400;BME280;24180;42.676;23.320;2023-08-06T12:30:18;93939.50;;;28.70;nan
38400;BME280;24180;42.676;23.320;2023-08-06T12:32:43;93944.03;;;28.10;nan
38400;BME280;24180;42.676;23.320;2023-08-06T12:35:08;93928.56;;;27.47;nan
38400;BME280;24180;42.676;23.320;2023-08-06T12:37:34;93917.59;;;27.26;nan
38400;BME280;24180;42.676;23.320;2023-08-06T12:40:00;93923.81;;;26.93;nan
38400;BME280;24180;42.676;23.320;2023-08-06T12:42:26;93931.41;;;26.62;nan
38400;BME280;24180;42.676;23.320;2023-08-06T12:44:51;93909.38;;;26.55;nan
38400;BME280;24180;42.676;23.320;2023-08-06T12:47:18;93886.75;;;26.41;nan
38400;BME280;24180;42.676;23.320;2023-08-06T12:49:43;93907.09;;;26.81;nan
38400;BME280;24180;42.676;23.320;2023-08-06T12:52:09;93906.69;;;26.72;nan
38400;BME280;24180;42.676;23.320;2023-08-06T12:54:35;93903.13;;;26.83;nan
38400;BME280;24180;42.676;23.320;2023-08-06T12:57:04;93923.19;;;26.86;nan
38400;BME280;24180;42.676;23.320;2023-08-06T12:59:29;93932.44;;;26.44;nan
38400;BME280;24180;42.676;23.320;2023-08-06T13:01:55;93923.13;;;26.30;nan
38400;BME280;24180;42.676;23.320;2023-08-06T13:04:20;93920.81;;;26.34;nan
38400;BME280;24180;42.676;23.320;2023-08-06T13:06:46;93924.72;;;26.31;nan
38400;BME280;24180;42.676;23.320;2023-08-06T13:09:12;93891.97;;;26.53;nan
38400;BME280;24180;42.676;23.320;2023-08-06T13:11:39;93929.84;;;26.83;nan
38400;BME280;24180;42.676;23.320;2023-08-06T13:14:10;93932.53;;;26.66;nan